Lokaal brand risico:
CBI


Regionaal brand risico: Meer informatie


Weerstation
Sluispark-LeuvenLeuven-Sluispark



Nabijgelegen vliegvelden - METAR rapporten

   
EBBR - Wilsele bij Leuven
Gewijzigd: 27-05-2020 14:50
Licht bewolkt    Wind: Noorden 16.7 km/h<br />Gust to 16.7 km/h
Licht bewolkt
Wind: Wind: Noorden 16.7 km/h
Gust to 16.7 km/h
Temperatuur: 23°C
Dauwpunt: 6°C
Vochtigheid: 33%
Barometer: 1033 hPa
Bewolking: Licht bewolkt
Zicht: meer dan 10 km
Bewolking: Licht bewolkt 1493.5 m
EBBR 271250Z 36009G21KT 320V070 9999 FEW049 23/06 Q1033 NOSIG
EBAW - Antwerp
Gewijzigd: 27-05-2020 14:50
Licht bewolkt    Wind: NNO 11.1 km/h
Licht bewolkt
Wind: Wind: NNO 11.1 km/h
Temperatuur: 23°C
Dauwpunt: 9°C
Vochtigheid: 41%
Barometer: 1033 hPa
Bewolking: Licht bewolkt
Zicht: meer dan 10 km
Bewolking: Licht bewolkt 1310.6 m
EBAW 271250Z 02006KT 330V100 9999 FEW043 23/09 Q1033 NOSIG
EBLG - Li├Ęge
Gewijzigd: 27-05-2020 14:50
Helder    Wind: Noorden 9.3 km/h
Helder
Wind: Wind: Noorden 9.3 km/h
Temperatuur: 23°C
Dauwpunt: 8°C
Vochtigheid: 38%
Barometer: 1033 hPa
Zicht: meer dan 10 km
Bewolking: Helder
EBLG 271250Z 35005KT 300V050 CAVOK 23/08 Q1033 NOSIG
EBCV - Mons/Bergen
Gewijzigd: 27-05-2020 14:55
Helder    Wind: NNO 14.8 km/h
Helder
Wind: Wind: NNO 14.8 km/h
Temperatuur: 23°C
Dauwpunt: 7°C
Vochtigheid: 36%
Barometer: 1033 hPa
Bewolking: Helder
Zicht: meer dan 10 km
Bewolking: Helder
EBCV 271255Z AUTO 02008KT 9999 NCD 23/07 Q1033 BLU
EHBK - Maastricht
Gewijzigd: 27-05-2020 14:55
Gedeeltelijk bewolkt    Wind: NNW 13 km/h
Gedeeltelijk bewolkt
Wind: Wind: NNW 13 km/h
Temperatuur: 23°C
Dauwpunt: 9°C
Vochtigheid: 41%
Barometer: 1032 hPa
Bewolking: Gedeeltelijk bewolkt
Zicht: meer dan 10 km
Bewolking: Gedeeltelijk bewolkt
EHBK 271255Z AUTO 34007KT 280V060 9999 NSC 23/09 Q1032 NOSIG
ELLX - Luxemburg
Gewijzigd: 27-05-2020 14:50
Helder    Wind: varieert 5.6 km/h
Helder
Wind: Wind: varieert 5.6 km/h
Temperatuur: 22°C
Dauwpunt: 5°C
Vochtigheid: 33%
Barometer: 1032 hPa
Zicht: meer dan 10 km
Bewolking: Helder
ELLX 271250Z VRB03KT CAVOK 22/05 Q1032 NOSIG
EBOS - Oostende
Gewijzigd: 27-05-2020 14:50
Helder    Wind: NNO 20.4 km/h
Helder
Wind: Wind: NNO 20.4 km/h
Temperatuur: 18°C
Dauwpunt: 10°C
Vochtigheid: 60%
Barometer: 1036 hPa
Zicht: meer dan 10 km
Bewolking: Helder
EBOS 271250Z 02011KT CAVOK 18/10 Q1036 NOSIG
  

Script ontwikkeld door  Saratoga-weather.org Aangepast voor de template door  Weerstation Leuven

U vindt ons ook hier:

UK Metoffice

WeatherCloud

European Weather Network

Weather Underground

Benelux Weather Network

AWEKAS

WeatherlinkIP

HAMweather, WeatherForYou, PWS Weather

Het Weer Aktueel

Apparatuur in gebruik:

Weer-station
Davis VP2 weatherstation

Weer-programma
Meteobridge

Weer-computer
D-Link DIR-505

Webleverancier
Robohost

Davis VP2 weatherstation

Meteobridge

D-Link DIR-505

Robohost